Amsterdam, Ohio
Current Conditions -  °F | °C
As of 10:53 PM on Saturday 22 Nov 2014 (Local Time) from KHLG Reporting Station
Overcast Overcast  
Wind Chill: 52°   Ceiling: 11000
Heat Index: 52°   Visibility: 10mi
Dew Point: 28°   Wind: 12mph
Humidity: 40%   Direction: 210°SSW
Pressure: 30.09"   Gusts: NA
Location:  40.47°N, 80.92°W
Report Text: KHLG 230353Z AUTO 21010KT 10SM SCT060 OVC110 11/M02 A3009 RMK AO2 SLP199 T01111022
Loading
Personal Weather Stations






























Interactive Weather Map New forecast layout! Learn more

10-Day Weather Forecast

Advertisements
Track Severe Weather on mobile